Impacts TAF Board INFO
FOR SITUATIONAL AWARENESS. NOT TO BE USED FOR FLIGHT PLANNING PURPOSES.
IDs:

KPHX - Phoenix/Sky Harbor, AZ, US

Issued at 0247 UTC 19 Jan 2018
Updated at 0521 UTC 19 Jan 2018
Potential Impact None Slight Moderate High
Time<<20/06Z 20/07Z 20/08Z 20/09Z 20/10Z 20/11Z 20/12Z 20/13Z 20/14Z 20/15Z 20/16Z 20/17Z 20/18Z
Type
VIS
CIG
Cover
FltCat
WX
WDir
WSpd
WGst

Raw TAF
KPHX 190247Z 1903/2006 VRB04KT P6SM FEW120 SCT200 BKN250
  FM190500 10006KT P6SM SCT200 BKN250
  FM192200 19005KT P6SM SCT250
  FM200000 25004KT P6SM SCT250


METAR Board
Radar Display
Forecast Discussion

FOR SITUATIONAL AWARENESS. NOT TO BE USED FOR FLIGHT PLANNING PURPOSES.